Time;durP1;ratioP1;P1;durP2;ratioP2;P2;SDS_P1;SDS_P2;PMS_P1;PMS_P2;Temp;Humidity;BMP_temperature;BMP_pressure;BME280_temperature;BME280_humidity;BME280_pressure;Samples;Min_cycle;Max_cycle;Signal;HPM_P1;HPM_P2
2021/06/28 18:03:17;;;;;;;4.45;3.03;;;14.60;65.90;;;;;;4238641;27;20535;-53
2021/06/28 18:05:18;;;;;;;;;;;14.50;66.90;;;;;;4229247;27;20030;-51
2021/06/28 18:07:21;;;;;;;4.90;3.30;;;14.50;66.50;;;;;;4207661;28;19919;-52
2021/06/28 18:09:25;;;;;;;6.55;3.20;;;14.40;66.80;;;;;;4218715;27;20249;-52
2021/06/28 18:11:27;;;;;;;4.03;3.25;;;14.40;66.80;;;;;;4227191;28;20421;-54
2021/06/28 18:13:29;;;;;;;4.63;3.28;;;14.40;67.00;;;;;;4222474;27;20370;-51
2021/06/28 18:15:31;;;;;;;4.82;3.38;;;14.50;66.80;;;;;;4225371;27;20031;-51
2021/06/28 18:17:33;;;;;;;4.93;3.30;;;14.50;66.70;;;;;;4224529;27;20034;-51
2021/06/28 18:19:36;;;;;;;4.32;3.55;;;14.50;66.50;;;;;;4226274;28;20028;-51
2021/06/28 18:21:38;;;;;;;6.57;3.33;;;14.50;66.30;;;;;;4229950;27;20042;-53
2021/06/28 18:23:42;;;;;;;4.55;3.20;;;14.50;66.30;;;;;;4220133;28;20118;-53
2021/06/28 18:25:44;;;;;;;10.10;3.50;;;14.60;66.10;;;;;;4225225;27;20024;-56
2021/06/28 18:27:46;;;;;;;4.82;3.28;;;14.60;66.10;;;;;;4226504;27;20035;-50
2021/06/28 18:29:51;;;;;;;5.60;3.45;;;14.60;66.10;;;;;;4221345;28;20086;-49
2021/06/28 18:31:54;;;;;;;5.30;3.55;;;14.60;65.70;;;;;;4222587;27;20023;-46
2021/06/28 18:33:57;;;;;;;3.97;3.00;;;14.70;65.60;;;;;;4228539;27;20030;-50
2021/06/28 18:35:59;;;;;;;4.70;3.17;;;14.70;65.50;;;;;;4229345;27;20032;-53
2021/06/28 18:38:01;;;;;;;4.40;3.33;;;14.70;65.70;;;;;;4228173;27;20134;-54
2021/06/28 18:40:05;;;;;;;4.75;3.10;;;14.70;65.50;;;;;;4222751;27;20503;-54
2021/06/28 18:42:07;;;;;;;4.60;3.20;;;14.70;65.40;;;;;;4224763;28;20272;-57
2021/06/28 18:44:10;;;;;;;5.82;3.00;;;14.70;65.20;;;;;;4224439;27;20032;-55
2021/06/28 18:46:12;;;;;;;4.30;2.88;;;14.70;65.30;;;;;;4225678;27;20168;-54
2021/06/28 18:48:18;;;;;;;4.32;3.35;;;14.70;65.20;;;;;;4229222;27;20023;-53
2021/06/28 18:50:20;;;;;;;3.72;3.03;;;14.70;65.20;;;;;;4227706;27;20027;-54
2021/06/28 18:52:22;;;;;;;5.82;3.17;;;14.70;65.00;;;;;;4222578;27;20015;-55
2021/06/28 18:54:24;;;;;;;3.97;2.97;;;14.80;65.00;;;;;;4222140;27;20022;-55
2021/06/28 18:58:29;;;;;;;4.38;3.13;;;14.70;64.90;;;;;;4223843;27;20154;-55
2021/06/28 19:00:32;;;;;;;4.43;2.97;;;14.70;64.80;;;;;;4223363;27;20476;-55
2021/06/28 19:02:40;;;;;;;4.57;2.72;;;14.70;64.80;;;;;;4221973;27;20107;-56
2021/06/28 19:04:42;;;;;;;4.75;2.88;;;14.70;64.80;;;;;;4224213;28;20150;-55
2021/06/28 19:06:44;;;;;;;5.20;3.10;;;14.70;64.80;;;;;;4221183;27;20031;-54
2021/06/28 19:08:47;;;;;;;3.65;3.03;;;14.70;64.70;;;;;;4227390;27;20157;-52
2021/06/28 19:10:49;;;;;;;5.03;3.30;;;14.70;64.80;;;;;;4227164;28;20023;-53
2021/06/28 19:12:51;;;;;;;6.15;3.50;;;14.70;64.80;;;;;;4221881;28;20039;-48
2021/06/28 19:14:53;;;;;;;4.45;3.10;;;14.70;65.00;;;;;;4209685;28;20110;-51
2021/06/28 19:16:55;;;;;;;4.13;2.75;;;14.70;65.00;;;;;;4207003;28;20050;-50
2021/06/28 19:18:58;;;;;;;3.97;3.00;;;14.70;65.00;;;;;;4214943;28;20019;-52
2021/06/28 19:21:00;;;;;;;4.68;3.08;;;14.60;64.90;;;;;;4213219;28;20103;-50
2021/06/28 19:23:02;;;;;;;4.00;2.90;;;14.70;64.90;;;;;;4209443;27;20313;-53
2021/06/28 19:25:05;;;;;;;4.22;3.28;;;14.60;64.80;;;;;;4209064;28;20099;-52
2021/06/28 19:27:07;;;;;;;4.05;3.25;;;14.60;64.80;;;;;;4213921;28;20024;-46
2021/06/28 19:29:10;;;;;;;5.57;3.22;;;14.60;64.90;;;;;;4212018;27;20403;-49
2021/06/28 19:31:12;;;;;;;4.35;2.97;;;14.60;64.80;;;;;;4205450;28;20042;-49
2021/06/28 19:33:15;;;;;;;5.47;3.03;;;14.60;64.90;;;;;;4211322;27;20432;-50
2021/06/28 19:35:17;;;;;;;6.40;3.35;;;14.60;64.90;;;;;;4212190;28;20036;-53
2021/06/28 19:37:19;;;;;;;4.10;3.03;;;14.60;64.90;;;;;;4208056;28;20043;-57
2021/06/28 19:39:22;;;;;;;4.88;3.35;;;14.60;65.00;;;;;;4215830;27;20016;-49
2021/06/28 19:41:24;;;;;;;5.32;3.38;;;14.60;65.00;;;;;;4211066;28;20147;-52
2021/06/28 19:43:26;;;;;;;5.10;3.13;;;14.60;65.00;;;;;;4209614;28;20035;-47
2021/06/28 19:45:28;;;;;;;4.45;2.80;;;14.60;64.90;;;;;;4210155;28;20050;-54
2021/06/28 19:47:30;;;;;;;6.13;3.10;;;14.50;64.90;;;;;;4217864;27;20035;-50
2021/06/28 19:49:33;;;;;;;7.22;3.17;;;14.50;64.90;;;;;;4210540;28;20031;-51
2021/06/28 19:51:35;;;;;;;6.20;3.40;;;14.50;64.70;;;;;;4213860;27;20047;-51
2021/06/28 19:53:37;;;;;;;4.82;3.05;;;14.50;64.90;;;;;;4208457;28;20036;-53
2021/06/28 19:55:39;;;;;;;4.45;3.08;;;14.50;64.90;;;;;;4207773;28;20133;-53
2021/06/28 19:57:41;;;;;;;3.92;3.20;;;14.50;65.00;;;;;;4213333;27;20055;-51
2021/06/28 19:59:43;;;;;;;4.97;3.03;;;14.50;64.90;;;;;;4211231;28;20028;-49
2021/06/28 20:01:45;;;;;;;3.83;2.97;;;14.50;64.80;;;;;;4212664;28;20058;-53
2021/06/28 20:03:48;;;;;;;5.00;3.33;;;14.50;65.00;;;;;;4209559;28;20355;-52
2021/06/28 20:05:51;;;;;;;5.07;3.42;;;14.50;64.90;;;;;;4212862;28;20031;-53
2021/06/28 20:07:53;;;;;;;6.13;3.35;;;14.40;64.90;;;;;;4212415;28;20039;-52
2021/06/28 20:09:55;;;;;;;3.85;3.10;;;14.40;64.90;;;;;;4215092;28;20015;-52
2021/06/28 20:11:58;;;;;;;4.13;2.83;;;14.40;64.90;;;;;;4208350;28;20028;-47
2021/06/28 20:14:00;;;;;;;5.10;3.10;;;14.40;64.80;;;;;;4212969;28;20467;-49
2021/06/28 20:16:06;;;;;;;5.97;3.40;;;14.40;64.80;;;;;;4212557;28;20129;-54
2021/06/28 20:18:10;;;;;;;5.22;3.10;;;14.40;64.80;;;;;;4210629;27;20027;-53
2021/06/28 20:20:13;;;;;;;5.82;3.45;;;14.40;64.70;;;;;;4211126;27;20024;-52
2021/06/28 20:22:15;;;;;;;4.75;3.20;;;14.40;64.80;;;;;;4215648;27;20089;-49
2021/06/28 20:24:17;;;;;;;4.95;3.30;;;14.30;64.70;;;;;;4209170;28;20024;-50
2021/06/28 20:26:19;;;;;;;5.63;3.10;;;14.40;64.90;;;;;;4210534;27;20028;-48
2021/06/28 20:28:21;;;;;;;3.72;2.63;;;14.30;64.80;;;;;;4208605;28;20438;-52
2021/06/28 20:30:23;;;;;;;6.93;3.45;;;14.30;64.90;;;;;;4211791;27;20640;-51
2021/06/28 20:32:25;;;;;;;4.20;2.85;;;14.30;64.80;;;;;;4212574;28;20119;-53
2021/06/28 20:34:27;;;;;;;5.30;3.15;;;14.30;64.70;;;;;;4208119;28;20408;-49
2021/06/28 20:36:29;;;;;;;4.40;3.10;;;14.30;64.90;;;;;;4216045;28;20024;-49
2021/06/28 20:38:31;;;;;;;5.32;3.30;;;14.30;64.70;;;;;;4210376;28;20236;-53
2021/06/28 20:40:33;;;;;;;3.33;2.92;;;14.20;64.80;;;;;;4209362;28;20392;-51
2021/06/28 20:42:36;;;;;;;4.35;2.83;;;14.30;64.80;;;;;;4209091;27;20040;-53
2021/06/28 20:44:39;;;;;;;5.57;2.78;;;14.20;64.80;;;;;;4210597;27;20039;-51
2021/06/28 20:46:41;;;;;;;4.80;3.15;;;14.20;64.80;;;;;;4208423;28;20040;-50
2021/06/28 20:48:44;;;;;;;3.65;2.75;;;14.20;64.90;;;;;;4212517;27;20099;-48
2021/06/28 20:50:46;;;;;;;4.75;2.92;;;14.20;64.80;;;;;;4208828;27;20038;-51
2021/06/28 20:52:52;;;;;;;5.80;3.03;;;14.20;64.80;;;;;;4208650;28;20028;-48
2021/06/28 20:54:54;;;;;;;4.65;3.20;;;14.20;64.90;;;;;;4189733;28;20461;-54
2021/06/28 20:56:57;;;;;;;4.63;2.70;;;14.20;64.70;;;;;;4211087;28;20032;-47
2021/06/28 20:58:59;;;;;;;4.55;2.95;;;14.20;64.90;;;;;;4209203;28;20035;-52
2021/06/28 21:01:02;;;;;;;4.25;2.80;;;14.20;64.80;;;;;;4189353;28;20482;-51
2021/06/28 21:03:04;;;;;;;4.40;2.85;;;;;;;;;;4212803;28;20058;-51
2021/06/28 21:05:06;;;;;;;3.97;2.90;;;;;;;;;;4211075;27;20032;-47
2021/06/28 21:07:08;;;;;;;4.72;2.80;;;14.10;65.00;;;;;;4211755;28;20367;-51
2021/06/28 21:09:10;;;;;;;3.83;2.50;;;14.70;65.70;;;;;;4211669;28;20088;-52
2021/06/28 21:11:16;;;;;;;3.67;2.30;;;15.20;64.70;;;;;;4208718;28;20357;-51
2021/06/28 21:13:19;;;;;;;4.90;2.22;;;15.70;63.60;;;;;;4210405;28;20027;-48
2021/06/28 21:15:21;;;;;;;3.92;2.70;;;16.10;62.60;;;;;;4212611;27;20031;-54
2021/06/28 21:17:23;;;;;;;4.38;2.65;;;16.40;61.70;;;;;;4211706;27;20236;-51
2021/06/28 21:19:25;;;;;;;5.65;2.20;;;16.80;61.00;;;;;;4212187;27;20123;-47
2021/06/28 21:21:27;;;;;;;4.32;2.50;;;17.10;60.40;;;;;;4210092;28;20043;-52
2021/06/28 21:23:30;;;;;;;4.28;2.78;;;17.40;59.80;;;;;;4208977;28;20024;-51
2021/06/28 21:25:32;;;;;;;3.72;2.13;;;17.60;60.00;;;;;;4193959;28;20031;-51
2021/06/28 21:27:35;;;;;;;5.15;2.45;;;17.90;58.70;;;;;;4208990;27;20028;-52
2021/06/28 21:29:37;;;;;;;3.50;2.20;;;18.10;58.20;;;;;;4212795;28;20145;-50
2021/06/28 21:31:39;;;;;;;3.33;2.00;;;18.30;57.70;;;;;;4209944;28;20268;-55
2021/06/28 21:33:41;;;;;;;4.40;2.10;;;18.50;57.30;;;;;;4214545;28;20031;-51
2021/06/28 21:35:44;;;;;;;2.97;2.08;;;18.60;56.80;;;;;;4206760;28;20031;-54
2021/06/28 21:37:46;;;;;;;5.18;2.13;;;18.90;56.50;;;;;;4211516;28;20364;-55
2021/06/28 21:39:48;;;;;;;3.28;1.90;;;19.10;56.10;;;;;;4207641;28;20028;-52
2021/06/28 21:41:51;;;;;;;3.33;2.10;;;19.30;55.60;;;;;;4213397;28;20071;-54
2021/06/28 21:43:53;;;;;;;3.08;2.05;;;19.50;55.20;;;;;;4209951;28;20043;-54
2021/06/28 21:45:55;;;;;;;3.05;1.95;;;19.60;55.00;;;;;;4210639;28;20022;-50
2021/06/28 21:47:57;;;;;;;2.92;1.80;;;19.80;54.60;;;;;;4209105;28;20517;-53
2021/06/28 21:49:59;;;;;;;2.88;2.10;;;19.90;54.20;;;;;;4210968;27;20465;-51
2021/06/28 21:52:01;;;;;;;4.07;2.08;;;20.10;53.90;;;;;;4207617;28;20031;-46
2021/06/28 21:54:04;;;;;;;3.63;2.28;;;20.30;53.70;;;;;;4191293;28;20061;-52
2021/06/28 21:56:12;;;;;;;2.78;2.15;;;20.40;53.30;;;;;;4216926;28;20391;-50
2021/06/28 21:58:14;;;;;;;3.55;2.25;;;20.50;53.10;;;;;;4210514;27;20408;-51
2021/06/28 22:00:18;;;;;;;3.00;2.20;;;;;;;;;;4193726;28;20438;-54
2021/06/28 22:02:20;;;;;;;2.67;1.80;;;;;;;;;;4210657;28;20168;-51
2021/06/28 22:04:22;;;;;;;4.22;2.10;;;;;;;;;;4210424;28;20508;-54
2021/06/28 22:06:24;;;;;;;3.00;1.77;;;;;;;;;;4210147;28;20055;-49
2021/06/28 22:08:26;;;;;;;2.47;1.63;;;;;;;;;;4209159;28;20032;-53
2021/06/28 22:10:28;;;;;;;3.22;2.03;;;;;;;;;;4209863;28;20019;-47
2021/06/28 22:12:30;;;;;;;3.47;2.30;;;;;;;;;;4208616;28;20709;-49
2021/06/28 22:14:33;;;;;;;4.80;2.25;;;;;;;;;;4210275;28;20079;-53
2021/06/28 22:16:35;;;;;;;3.63;2.13;;;;;;;;;;4211945;28;20032;-49
2021/06/28 22:18:37;;;;;;;4.07;2.00;;;;;;;;;;4210391;28;20093;-54
2021/06/28 22:20:39;;;;;;;3.97;2.40;;;;;;;;;;4209343;28;20036;-52
2021/06/28 22:22:42;;;;;;;2.78;2.20;;;;;;;;;;4210505;28;20092;-54
2021/06/28 22:24:45;;;;;;;3.45;2.10;;;20.70;52.70;;;;;;4210043;28;20043;-51
2021/06/28 22:26:47;;;;;;;4.20;1.97;;;22.30;49.90;;;;;;4206617;28;20130;-52
2021/06/28 22:28:49;;;;;;;6.13;2.40;;;22.40;49.50;;;;;;4195480;28;20260;-53
2021/06/28 22:30:51;;;;;;;4.68;2.17;;;;;;;;;;4209817;28;20493;-55
2021/06/28 22:32:56;;;;;;;4.60;2.45;;;;;;;;;;4211504;28;20238;-56
2021/06/28 22:34:58;;;;;;;4.88;2.10;;;;;;;;;;4210712;28;20513;-49
2021/06/28 22:37:00;;;;;;;5.35;2.22;;;22.50;49.40;;;;;;4213213;28;20419;-52
2021/06/28 22:39:02;;;;;;;4.07;2.30;;;22.00;50.90;;;;;;4212412;28;20076;-56
2021/06/28 22:41:05;;;;;;;4.90;2.30;;;21.70;50.50;;;;;;4210198;28;20088;-52
2021/06/28 22:43:07;;;;;;;3.00;2.15;;;21.50;50.90;;;;;;4210416;28;20046;-47
2021/06/28 22:45:10;;;;;;;3.47;2.35;;;21.20;51.30;;;;;;4213210;28;20077;-52
2021/06/28 22:47:12;;;;;;;3.08;2.00;;;;;;;;;;4210938;28;20040;-49
2021/06/28 22:49:14;;;;;;;4.63;2.22;;;;;;;;;;4212967;28;20446;-55
2021/06/28 22:51:16;;;;;;;4.95;2.35;;;;;;;;;;4191267;28;20615;-54
2021/06/28 22:53:18;;;;;;;4.43;2.55;;;;;;;;;;4214140;28;20034;-52
2021/06/28 22:55:20;;;;;;;3.47;2.22;;;21.10;51.10;;;;;;4213011;28;20028;-55
2021/06/28 22:57:22;;;;;;;4.25;2.30;;;20.40;52.40;;;;;;4210421;28;20511;-54
2021/06/28 22:59:24;;;;;;;3.78;2.65;;;;;;;;;;4213243;28;20390;-56
2021/06/28 23:01:26;;;;;;;5.03;2.63;;;20.20;52.50;;;;;;4213580;28;20458;-52
2021/06/28 23:03:28;;;;;;;4.07;2.70;;;;;;;;;;4198100;28;20043;-56
2021/06/28 23:05:30;;;;;;;3.42;2.30;;;;;;;;;;4211882;28;20032;-53
2021/06/28 23:07:32;;;;;;;4.63;2.30;;;;;;;;;;4215717;28;20441;-54
2021/06/28 23:09:34;;;;;;;4.68;2.55;;;;;;;;;;4212349;28;20023;-55
2021/06/28 23:11:36;;;;;;;4.75;2.70;;;;;;;;;;4210426;28;20263;-55
2021/06/28 23:13:38;;;;;;;4.13;2.85;;;20.00;52.50;;;;;;4193566;28;20464;-55
2021/06/28 23:15:40;;;;;;;5.40;2.80;;;;;;;;;;4210105;28;20027;-53
2021/06/28 23:17:42;;;;;;;3.50;2.95;;;;;;;;;;4196159;28;20532;-56
2021/06/28 23:19:44;;;;;;;4.35;2.72;;;;;;;;;;4180660;28;20401;-56
2021/06/28 23:21:46;;;;;;;4.45;2.70;;;;;;;;;;4209305;28;20028;-55
2021/06/28 23:23:48;;;;;;;4.40;2.85;;;;;;;;;;4217062;28;20037;-53
2021/06/28 23:25:51;;;;;;;4.90;3.10;;;19.50;53.50;;;;;;4207784;27;20028;-57
2021/06/28 23:27:53;;;;;;;8.07;3.35;;;19.20;53.60;;;;;;4209346;28;20054;-51
2021/06/28 23:29:55;;;;;;;6.75;2.58;;;19.30;53.30;;;;;;4214073;28;20481;-57
2021/06/28 23:31:57;;;;;;;7.25;2.92;;;19.50;53.10;;;;;;4208310;28;20031;-51
2021/06/28 23:34:00;;;;;;;4.43;2.95;;;19.70;52.70;;;;;;4210897;28;20055;-54
2021/06/28 23:36:02;;;;;;;3.55;2.55;;;19.90;52.20;;;;;;4214990;27;20027;-55
2021/06/28 23:38:05;;;;;;;3.42;2.58;;;20.10;51.80;;;;;;4215161;28;20028;-58
2021/06/28 23:40:08;;;;;;;3.47;2.35;;;20.20;51.30;;;;;;4196923;28;20028;-56
2021/06/28 23:42:10;;;;;;;3.50;2.58;;;;;;;;;;4217635;28;20043;-51
2021/06/28 23:44:12;;;;;;;4.00;2.60;;;;;;;;;;4208097;28;20034;-57
2021/06/28 23:46:14;;;;;;;3.17;2.40;;;20.40;51.00;;;;;;4214393;27;20024;-56
2021/06/28 23:48:16;;;;;;;3.58;2.70;;;21.00;50.20;;;;;;4192696;28;20016;-59
2021/06/28 23:50:18;;;;;;;3.47;2.70;;;21.10;49.70;;;;;;4194404;28;20252;-56
2021/06/28 23:52:20;;;;;;;3.45;2.58;;;21.30;50.20;;;;;;4211663;28;20138;-57
2021/06/28 23:54:22;;;;;;;3.95;2.67;;;21.50;49.20;;;;;;4213522;28;20036;-50
2021/06/28 23:56:24;;;;;;;3.90;3.00;;;21.60;48.80;;;;;;4190164;28;20028;-49
2021/06/28 23:58:26;;;;;;;5.43;2.75;;;21.80;48.70;;;;;;4210212;28;20132;-48
